LHDV weather

Dunaújváros Airfield
Dunaújváros, Fejér, Hungary

Public forecast

Using degrees Celsius for public forecast. Weather courtesy of forecast.io.

Closest aviation weather report (METAR) to Dunaújváros Airfield

Closest report is Kecskemét Airport, 34.3 nm (63.5 km) E. Retrieved 2020/02/17 06:15 UTC (5 minutes ago):

LHKE 170615Z 15006KT 8000 NSC 01/00 Q1023 R12/01//95 BECMG CAVOK RMK BLU

Closest aviation forecast (TAF) to Dunaújváros Airfield

Forecast is more than 12 hours old.

Closest forecast is Kecskemét Airport, 34.3 nm (63.5 km) E. Retrieved 2017/10/21 15:33 UTC (2 years ago):

TAF TAF LHKE 211415Z 2115/2224 29004KT CAVOK BECMG 2117/2119 8000 NSC BECMG 2119/2122 5000 BR MIBCFG NSC BECMG 2122/2224 VRB03KT 3000 BR